Time;durP1;ratioP1;P1;durP2;ratioP2;P2;SDS_P1;SDS_P2;PMS_P1;PMS_P2;Temp;Humidity;BMP_temperature;BMP_pressure;BME280_temperature;BME280_humidity;BME280_pressure;Samples;Min_cycle;Max_cycle;Signal;HPM_P1;HPM_P2
2024/02/05 00:00:34;;;;;;;18.43;9.20;;;9.70;99.90;;;;;;4976735;28;20469;-65
2024/02/05 00:03:02;;;;;;;15.63;10.33;;;9.80;99.90;;;;;;4976828;28;20469;-65
2024/02/05 00:05:29;;;;;;;11.87;9.20;;;9.70;99.90;;;;;;4976993;28;20783;-66
2024/02/05 00:07:57;;;;;;;20.07;10.57;;;9.70;99.90;;;;;;4977223;28;20486;-65
2024/02/05 00:10:24;;;;;;;18.00;10.10;;;9.80;99.90;;;;;;4976520;28;20488;-65
2024/02/05 00:12:52;;;;;;;17.33;9.77;;;9.80;99.90;;;;;;4976976;28;20844;-65
2024/02/05 00:15:19;;;;;;;20.33;10.20;;;9.80;99.90;;;;;;4977186;28;20466;-66
2024/02/05 00:17:49;;;;;;;13.53;9.00;;;9.80;99.90;;;;;;4977162;28;20468;-66
2024/02/05 00:20:16;;;;;;;14.00;9.83;;;9.80;99.90;;;;;;4977107;28;20469;-67
2024/02/05 00:22:44;;;;;;;20.20;9.87;;;9.80;99.90;;;;;;4977118;28;20871;-69
2024/02/05 00:25:12;;;;;;;24.23;10.70;;;9.80;99.90;;;;;;4976754;28;20551;-68
2024/02/05 00:27:39;;;;;;;22.80;10.90;;;9.80;99.90;;;;;;4976676;28;20910;-67
2024/02/05 00:30:09;;;;;;;18.90;11.27;;;9.70;99.90;;;;;;4975859;28;20539;-67
2024/02/05 00:32:39;;;;;;;15.20;9.87;;;9.70;99.90;;;;;;4974935;28;20466;-67
2024/02/05 00:35:09;;;;;;;18.57;10.27;;;9.70;99.90;;;;;;4975402;28;20515;-68
2024/02/05 00:37:36;;;;;;;17.47;9.67;;;9.70;99.90;;;;;;4976376;28;20867;-66
2024/02/05 00:40:05;;;;;;;18.17;9.17;;;9.70;99.90;;;;;;4975660;28;20461;-66
2024/02/05 00:42:33;;;;;;;17.50;10.63;;;9.60;99.90;;;;;;4976142;28;20466;-66
2024/02/05 00:45:01;;;;;;;22.37;11.60;;;9.60;99.90;;;;;;4975476;28;20466;-65
2024/02/05 00:47:29;;;;;;;19.83;10.70;;;9.60;99.90;;;;;;4975981;28;20561;-64
2024/02/05 00:49:57;;;;;;;17.23;9.70;;;9.60;99.90;;;;;;4976752;28;20462;-64
2024/02/05 00:52:27;;;;;;;16.60;10.37;;;9.60;99.90;;;;;;4975727;28;20497;-64
2024/02/05 00:54:55;;;;;;;18.10;10.07;;;9.70;99.90;;;;;;4976498;28;20599;-64
2024/02/05 00:57:22;;;;;;;25.63;11.77;;;9.60;99.90;;;;;;4975681;28;20516;-64
2024/02/05 00:59:49;;;;;;;19.83;12.03;;;9.60;99.90;;;;;;4975822;28;20515;-64
2024/02/05 01:02:18;;;;;;;13.07;10.13;;;9.70;99.90;;;;;;4975260;28;20921;-66
2024/02/05 01:04:45;;;;;;;17.60;9.93;;;9.60;99.90;;;;;;4975855;28;20466;-64
2024/02/05 01:07:15;;;;;;;20.93;10.67;;;9.70;99.90;;;;;;4975659;28;20505;-67
2024/02/05 01:09:44;;;;;;;20.00;10.50;;;9.60;99.90;;;;;;4976512;28;20816;-64
2024/02/05 01:12:12;;;;;;;21.90;10.20;;;9.70;99.90;;;;;;4975553;28;20462;-65
2024/02/05 01:14:39;;;;;;;21.50;10.53;;;9.70;99.90;;;;;;4975582;28;20465;-69
2024/02/05 01:17:06;;;;;;;18.13;9.33;;;9.70;99.90;;;;;;4975314;28;20466;-65
2024/02/05 01:19:34;;;;;;;19.90;9.30;;;9.70;99.90;;;;;;4975952;28;20469;-63
2024/02/05 01:22:01;;;;;;;24.60;9.97;;;9.70;99.90;;;;;;4975358;28;20552;-65
2024/02/05 01:24:28;;;;;;;25.43;10.43;;;9.70;99.90;;;;;;4975525;28;21038;-66
2024/02/05 01:26:57;;;;;;;13.40;9.60;;;9.60;99.90;;;;;;4975635;28;20551;-65
2024/02/05 01:29:24;;;;;;;18.20;10.80;;;9.60;99.90;;;;;;4976024;28;20466;-64
2024/02/05 01:31:52;;;;;;;15.43;10.40;;;9.70;99.90;;;;;;4975353;28;20500;-65
2024/02/05 01:34:20;;;;;;;19.20;9.93;;;9.70;99.90;;;;;;4975424;28;20538;-65
2024/02/05 01:36:47;;;;;;;22.83;10.77;;;9.70;99.90;;;;;;4975753;28;20842;-64
2024/02/05 01:39:15;;;;;;;19.00;9.70;;;9.70;99.90;;;;;;4975487;28;20466;-65
2024/02/05 01:41:43;;;;;;;16.07;9.27;;;9.70;99.90;;;;;;4976085;28;20753;-66
2024/02/05 01:44:11;;;;;;;23.67;11.63;;;9.70;99.90;;;;;;4975542;28;20466;-65
2024/02/05 01:46:39;;;;;;;19.23;11.23;;;9.70;99.90;;;;;;4976545;28;20557;-65
2024/02/05 01:49:08;;;;;;;20.67;10.60;;;9.70;99.90;;;;;;4978547;28;20501;-65
2024/02/05 01:51:40;;;;;;;24.70;10.00;;;9.70;99.90;;;;;;4979001;28;20926;-65
2024/02/05 01:54:10;;;;;;;24.30;11.37;;;9.70;99.90;;;;;;4978812;28;20492;-66
2024/02/05 01:56:38;;;;;;;23.27;11.60;;;9.70;99.90;;;;;;4978556;28;20517;-65
2024/02/05 01:59:05;;;;;;;19.17;11.07;;;9.70;99.90;;;;;;4978605;28;20466;-65
2024/02/05 02:01:37;;;;;;;20.20;9.60;;;9.70;99.90;;;;;;4978942;28;20776;-64
2024/02/05 02:04:07;;;;;;;26.20;10.10;;;9.70;99.90;;;;;;4978520;28;20466;-66
2024/02/05 02:06:36;;;;;;;27.20;11.63;;;9.70;99.90;;;;;;4979397;28;20498;-64
2024/02/05 02:09:05;;;;;;;19.27;10.60;;;9.70;99.90;;;;;;4978567;28;20540;-67
2024/02/05 02:11:32;;;;;;;24.53;11.37;;;9.80;99.90;;;;;;4979221;28;20496;-67
2024/02/05 02:13:59;;;;;;;21.03;9.63;;;9.80;99.90;;;;;;4978846;28;20492;-66
2024/02/05 02:16:30;;;;;;;25.30;10.77;;;9.80;99.90;;;;;;4978408;28;20454;-65
2024/02/05 02:19:03;;;;;;;22.90;10.80;;;9.80;99.90;;;;;;4978756;28;20457;-67
2024/02/05 02:21:33;;;;;;;23.90;10.90;;;9.80;99.90;;;;;;4978964;28;20955;-65
2024/02/05 02:24:02;;;;;;;25.40;12.13;;;9.80;99.90;;;;;;4977978;28;20461;-66
2024/02/05 02:26:29;;;;;;;25.40;10.80;;;9.80;99.90;;;;;;4978091;28;20958;-64
2024/02/05 02:28:56;;;;;;;23.10;10.07;;;9.80;99.90;;;;;;4978491;28;20491;-66
2024/02/05 02:31:29;;;;;;;24.13;10.83;;;9.80;99.90;;;;;;4978852;28;20508;-68
2024/02/05 02:34:02;;;;;;;23.33;10.73;;;9.70;99.90;;;;;;4978449;28;20507;-65
2024/02/05 02:36:35;;;;;;;26.77;11.50;;;9.70;99.90;;;;;;4977989;28;20461;-65
2024/02/05 02:39:15;;;;;;;20.40;10.67;;;9.70;99.90;;;;;;4978336;28;20507;-66
2024/02/05 02:41:44;;;;;;;24.50;10.70;;;9.70;99.90;;;;;;4978163;28;20560;-65
2024/02/05 02:44:12;;;;;;;21.67;9.90;;;9.70;99.90;;;;;;4978270;28;20465;-66
2024/02/05 02:46:40;;;;;;;21.17;9.53;;;9.70;99.90;;;;;;4977859;28;20497;-67
2024/02/05 02:49:07;;;;;;;22.43;11.27;;;9.70;99.90;;;;;;4978189;28;20499;-66
2024/02/05 02:51:34;;;;;;;27.40;10.90;;;9.70;99.90;;;;;;4978344;28;20545;-65
2024/02/05 02:54:02;;;;;;;36.27;10.90;;;9.70;99.90;;;;;;4977484;28;20508;-65
2024/02/05 02:56:31;;;;;;;23.27;11.33;;;9.70;99.90;;;;;;4977612;28;20492;-65
2024/02/05 02:58:58;;;;;;;26.27;9.80;;;9.70;99.90;;;;;;4976845;28;20496;-66
2024/02/05 03:01:25;;;;;;;27.60;10.43;;;9.70;99.90;;;;;;4977841;28;20558;-66
2024/02/05 03:03:53;;;;;;;28.03;13.90;;;9.60;99.90;;;;;;4977886;28;20962;-66
2024/02/05 03:06:20;;;;;;;28.20;10.70;;;9.60;99.90;;;;;;4977347;28;20551;-63
2024/02/05 03:08:47;;;;;;;16.70;10.50;;;9.60;99.90;;;;;;4977750;28;20540;-68
2024/02/05 03:11:14;;;;;;;29.50;11.73;;;9.60;99.90;;;;;;4977248;28;20548;-66
2024/02/05 03:13:43;;;;;;;22.30;12.03;;;9.70;99.90;;;;;;4977961;28;20489;-66
2024/02/05 03:16:10;;;;;;;19.57;11.50;;;9.60;99.90;;;;;;4977122;28;20490;-64
2024/02/05 03:18:37;;;;;;;20.40;10.60;;;9.60;99.90;;;;;;4977261;28;20462;-65
2024/02/05 03:21:05;;;;;;;18.00;9.67;;;9.70;99.90;;;;;;4977290;28;20497;-65
2024/02/05 03:23:32;;;;;;;23.40;10.57;;;9.60;99.90;;;;;;4977475;28;20532;-65
2024/02/05 03:25:59;;;;;;;27.70;11.63;;;9.60;99.90;;;;;;4977257;28;20544;-65
2024/02/05 03:28:28;;;;;;;22.13;10.50;;;9.60;99.90;;;;;;4976936;28;20466;-65
2024/02/05 03:30:57;;;;;;;24.23;10.23;;;9.60;99.90;;;;;;4977473;28;20520;-65
2024/02/05 03:33:24;;;;;;;26.80;10.20;;;9.60;99.90;;;;;;4977384;28;20466;-67
2024/02/05 03:35:52;;;;;;;14.50;9.30;;;9.60;99.90;;;;;;4977444;28;20466;-65
2024/02/05 03:38:19;;;;;;;23.97;10.93;;;9.60;99.90;;;;;;4976958;28;20470;-67
2024/02/05 03:40:46;;;;;;;20.93;10.43;;;9.60;99.90;;;;;;4976859;28;20479;-65
2024/02/05 03:43:13;;;;;;;17.30;10.43;;;9.60;99.90;;;;;;4976845;28;20564;-65
2024/02/05 03:45:40;;;;;;;32.17;11.40;;;9.60;99.90;;;;;;4977054;28;20465;-65
2024/02/05 03:48:09;;;;;;;25.43;11.37;;;9.60;99.90;;;;;;4976634;28;20606;-64
2024/02/05 03:50:37;;;;;;;23.83;9.33;;;9.60;99.90;;;;;;4977160;28;20820;-66
2024/02/05 03:53:04;;;;;;;20.03;9.17;;;9.60;99.90;;;;;;4976880;28;20462;-67
2024/02/05 03:55:32;;;;;;;15.03;8.20;;;9.60;99.90;;;;;;4976961;28;20466;-65
2024/02/05 03:58:00;;;;;;;28.67;10.80;;;9.60;99.90;;;;;;4977068;28;20489;-66
2024/02/05 04:00:27;;;;;;;22.90;10.37;;;9.60;99.90;;;;;;4976621;28;21032;-66
2024/02/05 04:02:55;;;;;;;27.57;10.07;;;9.60;99.90;;;;;;4976547;28;20511;-64
2024/02/05 04:05:28;;;;;;;25.10;9.83;;;9.60;99.90;;;;;;4976158;28;20465;-68
2024/02/05 04:07:55;;;;;;;24.67;9.97;;;9.50;99.90;;;;;;4976641;28;20795;-67
2024/02/05 04:10:22;;;;;;;27.87;10.77;;;9.60;99.90;;;;;;4976435;28;20515;-68
2024/02/05 04:12:49;;;;;;;21.47;10.03;;;9.60;99.90;;;;;;4976464;28;20470;-66
2024/02/05 04:15:17;;;;;;;20.53;8.90;;;9.60;99.90;;;;;;4976544;28;20466;-66
2024/02/05 04:17:43;;;;;;;23.23;10.07;;;9.60;99.90;;;;;;4976596;28;20917;-67
2024/02/05 04:20:11;;;;;;;29.50;9.97;;;9.60;99.90;;;;;;4976689;28;20489;-66
2024/02/05 04:22:40;;;;;;;27.93;11.00;;;9.60;99.90;;;;;;4976592;28;20497;-66
2024/02/05 04:25:09;;;;;;;18.40;8.87;;;9.50;99.90;;;;;;4976536;28;20504;-65
2024/02/05 04:27:37;;;;;;;22.20;9.10;;;9.50;99.90;;;;;;4976710;28;20501;-65
2024/02/05 04:30:05;;;;;;;25.40;8.70;;;9.50;99.90;;;;;;4976230;28;20961;-65
2024/02/05 04:32:33;;;;;;;28.90;9.57;;;9.50;99.90;;;;;;4976130;28;20473;-72
2024/02/05 04:35:00;;;;;;;20.20;10.30;;;9.50;99.90;;;;;;4976334;28;20470;-69
2024/02/05 04:37:27;;;;;;;16.07;8.23;;;9.50;99.90;;;;;;4976482;28;20560;-65
2024/02/05 04:39:56;;;;;;;31.50;9.87;;;9.50;99.90;;;;;;4976614;28;20502;-66
2024/02/05 04:42:23;;;;;;;18.03;8.67;;;9.50;99.90;;;;;;4976108;28;20891;-65
2024/02/05 04:44:50;;;;;;;26.00;9.33;;;9.50;99.90;;;;;;4975922;28;20561;-64
2024/02/05 04:47:18;;;;;;;30.23;9.43;;;9.50;99.90;;;;;;4976017;28;20489;-64
2024/02/05 04:49:47;;;;;;;23.03;9.10;;;9.50;99.90;;;;;;4976493;28;20869;-65
2024/02/05 04:52:14;;;;;;;22.93;9.17;;;9.50;99.90;;;;;;4976212;28;20595;-70
2024/02/05 04:54:41;;;;;;;22.63;9.13;;;9.50;99.90;;;;;;4976007;28;20462;-64
2024/02/05 04:57:10;;;;;;;17.37;8.77;;;9.50;99.90;;;;;;4976011;28;20948;-70
2024/02/05 04:59:38;;;;;;;26.63;8.97;;;9.50;99.90;;;;;;4976201;28;20515;-66
2024/02/05 05:02:05;;;;;;;19.70;8.30;;;9.50;99.90;;;;;;4975695;28;20553;-67
2024/02/05 05:04:32;;;;;;;19.10;9.00;;;9.50;99.90;;;;;;4975771;28;20573;-66
2024/02/05 05:07:00;;;;;;;18.80;8.97;;;9.40;99.90;;;;;;4974115;28;20533;-65
2024/02/05 05:09:27;;;;;;;19.83;8.77;;;9.40;99.90;;;;;;4976311;28;20437;-66
2024/02/05 05:11:55;;;;;;;29.63;9.70;;;9.40;99.90;;;;;;4975546;28;20466;-66
2024/02/05 05:14:24;;;;;;;20.30;8.40;;;9.40;99.90;;;;;;4975537;28;20505;-64
2024/02/05 05:16:52;;;;;;;21.87;9.23;;;9.40;99.90;;;;;;4975347;28;20455;-66
2024/02/05 05:19:19;;;;;;;23.80;8.73;;;9.40;99.90;;;;;;4974537;28;20882;-65
2024/02/05 05:21:46;;;;;;;28.57;9.27;;;9.40;99.90;;;;;;4973544;28;20572;-69
2024/02/05 05:24:14;;;;;;;19.60;7.53;;;9.40;99.90;;;;;;4974099;28;20778;-66
2024/02/05 05:26:41;;;;;;;23.50;9.10;;;9.40;99.90;;;;;;4973700;28;21045;-64
2024/02/05 05:29:09;;;;;;;21.97;9.10;;;9.40;99.90;;;;;;4974090;28;20497;-64
2024/02/05 05:31:38;;;;;;;23.17;8.47;;;9.40;99.90;;;;;;4974301;28;20466;-65
2024/02/05 05:34:06;;;;;;;19.47;8.00;;;9.30;99.90;;;;;;4975295;28;20519;-64
2024/02/05 05:36:34;;;;;;;26.57;9.20;;;9.30;99.90;;;;;;4975665;28;20465;-64
2024/02/05 05:39:01;;;;;;;26.50;9.20;;;9.30;99.90;;;;;;4975691;28;20901;-64
2024/02/05 05:41:28;;;;;;;19.87;8.80;;;9.30;99.90;;;;;;4975354;28;20441;-68
2024/02/05 05:43:56;;;;;;;28.50;7.90;;;9.30;99.90;;;;;;4975678;28;20497;-64
2024/02/05 05:46:23;;;;;;;26.33;9.23;;;9.40;99.90;;;;;;4975299;28;20809;-64
2024/02/05 05:48:51;;;;;;;23.90;7.87;;;9.30;99.90;;;;;;4975124;28;20674;-64
2024/02/05 05:51:19;;;;;;;22.83;8.57;;;9.30;99.90;;;;;;4975444;28;20498;-64
2024/02/05 05:53:46;;;;;;;24.03;8.97;;;9.30;99.90;;;;;;4975444;28;20502;-67
2024/02/05 05:56:14;;;;;;;27.73;7.83;;;9.30;99.90;;;;;;4975174;28;20812;-71
2024/02/05 05:58:41;;;;;;;29.70;8.10;;;9.30;99.90;;;;;;4974031;28;20960;-65
2024/02/05 06:01:08;;;;;;;20.70;8.17;;;9.30;99.90;;;;;;4974380;28;20866;-64
2024/02/05 06:03:40;;;;;;;24.60;7.97;;;9.30;99.90;;;;;;4973680;28;20511;-64
2024/02/05 06:06:09;;;;;;;23.47;8.43;;;9.20;99.90;;;;;;4975196;28;20462;-64
2024/02/05 06:08:37;;;;;;;34.83;11.27;;;9.30;99.90;;;;;;4974371;28;20600;-64
2024/02/05 06:11:05;;;;;;;24.43;8.27;;;9.30;99.90;;;;;;4974623;28;20466;-63
2024/02/05 06:13:32;;;;;;;29.63;9.73;;;9.30;99.90;;;;;;4974467;28;20472;-64
2024/02/05 06:16:00;;;;;;;29.60;9.40;;;9.20;99.90;;;;;;4974781;28;20519;-64
2024/02/05 06:18:27;;;;;;;22.33;8.63;;;9.20;99.90;;;;;;4975073;28;20822;-63
2024/02/05 06:20:54;;;;;;;21.33;8.53;;;9.20;99.90;;;;;;4974039;28;20517;-66
2024/02/05 06:23:23;;;;;;;18.23;7.40;;;9.20;99.90;;;;;;4973090;28;20462;-67
2024/02/05 06:25:51;;;;;;;22.77;9.77;;;9.20;99.90;;;;;;4973616;28;20903;-64
2024/02/05 06:28:18;;;;;;;28.33;9.13;;;9.20;99.90;;;;;;4972826;28;20504;-64
2024/02/05 06:30:49;;;;;;;19.23;8.37;;;9.20;99.90;;;;;;4973236;28;20465;-65
2024/02/05 06:33:17;;;;;;;24.00;9.63;;;9.30;99.90;;;;;;4974270;28;20466;-64
2024/02/05 06:35:44;;;;;;;17.33;8.50;;;9.30;99.90;;;;;;4976539;28;20527;-62
2024/02/05 06:38:12;;;;;;;20.33;9.07;;;9.20;99.90;;;;;;4977471;28;20548;-62
2024/02/05 06:40:41;;;;;;;26.70;8.10;;;9.20;99.90;;;;;;4973780;28;20511;-61
2024/02/05 06:43:08;;;;;;;20.63;10.00;;;9.20;99.90;;;;;;4976301;28;20861;-63
2024/02/05 06:45:37;;;;;;;25.47;9.03;;;9.20;99.90;;;;;;4976531;28;20470;-62
2024/02/05 06:48:05;;;;;;;21.50;8.40;;;9.20;99.90;;;;;;4976557;28;20513;-62
2024/02/05 06:50:32;;;;;;;24.27;9.23;;;9.10;99.90;;;;;;4976869;28;20561;-62
2024/02/05 06:53:00;;;;;;;26.00;9.20;;;9.20;99.90;;;;;;4976679;28;20472;-63
2024/02/05 06:55:27;;;;;;;25.90;8.60;;;9.20;99.90;;;;;;4976593;28;20458;-63
2024/02/05 06:57:56;;;;;;;29.10;9.00;;;9.20;99.90;;;;;;4976965;28;20901;-62
2024/02/05 07:00:24;;;;;;;25.67;8.97;;;9.20;99.90;;;;;;4977762;28;20519;-67
2024/02/05 07:02:51;;;;;;;19.37;7.90;;;9.10;99.90;;;;;;4976719;28;20470;-61
2024/02/05 07:05:20;;;;;;;24.63;7.80;;;9.10;99.90;;;;;;4976300;28;20519;-72
2024/02/05 07:07:48;;;;;;;24.27;8.00;;;9.10;99.90;;;;;;4976078;28;20502;-62
2024/02/05 07:10:15;;;;;;;23.87;8.30;;;9.10;99.90;;;;;;4975786;28;20531;-63
2024/02/05 07:12:42;;;;;;;30.20;9.40;;;9.10;99.90;;;;;;4976359;28;20458;-63
2024/02/05 07:15:12;;;;;;;21.23;8.77;;;9.10;99.90;;;;;;4976306;28;20499;-62
2024/02/05 07:17:39;;;;;;;16.77;8.43;;;9.10;99.90;;;;;;4976899;28;20803;-61
2024/02/05 07:20:07;;;;;;;21.47;7.80;;;9.10;99.90;;;;;;4977574;28;20881;-62
2024/02/05 07:22:34;;;;;;;37.90;8.17;;;9.10;99.90;;;;;;4977865;28;20461;-63
2024/02/05 07:25:02;;;;;;;28.60;8.87;;;9.10;99.90;;;;;;4977528;28;20473;-62
2024/02/05 07:27:30;;;;;;;21.60;9.67;;;9.10;99.90;;;;;;4977535;28;20613;-65
2024/02/05 07:29:57;;;;;;;15.27;6.90;;;9.10;99.90;;;;;;4977612;28;20484;-65
2024/02/05 07:32:26;;;;;;;20.07;7.80;;;9.10;99.90;;;;;;4977124;28;20515;-65
2024/02/05 07:34:54;;;;;;;22.23;8.00;;;9.10;99.90;;;;;;4977890;28;20472;-62
2024/02/05 07:37:22;;;;;;;25.90;8.00;;;9.10;99.90;;;;;;4977508;28;20462;-65
2024/02/05 07:39:50;;;;;;;24.03;8.10;;;9.10;99.90;;;;;;4977931;28;20470;-62
2024/02/05 07:42:17;;;;;;;19.90;7.60;;;9.10;99.90;;;;;;4977683;28;20803;-65
2024/02/05 07:44:45;;;;;;;26.60;8.43;;;9.10;99.90;;;;;;4976858;28;20891;-61
2024/02/05 07:47:12;;;;;;;18.30;7.50;;;9.10;99.90;;;;;;4977717;28;20462;-62
2024/02/05 07:49:42;;;;;;;27.53;8.00;;;9.10;99.90;;;;;;4977797;28;20466;-64
2024/02/05 07:52:10;;;;;;;21.87;8.10;;;9.10;99.90;;;;;;4977340;28;20515;-63
2024/02/05 07:54:37;;;;;;;20.33;7.63;;;9.10;99.90;;;;;;4977093;28;20474;-62
2024/02/05 07:57:05;;;;;;;20.13;7.43;;;9.10;99.90;;;;;;4977407;28;20470;-64
2024/02/05 07:59:33;;;;;;;21.37;7.73;;;9.10;99.90;;;;;;4977155;28;20466;-61
2024/02/05 08:02:01;;;;;;;19.70;7.70;;;9.10;99.90;;;;;;4976802;28;20470;-63
2024/02/05 08:04:29;;;;;;;21.17;8.30;;;9.10;99.90;;;;;;4976928;28;20466;-62
2024/02/05 08:06:59;;;;;;;20.17;7.20;;;9.10;99.90;;;;;;4976837;28;20440;-62
2024/02/05 08:09:26;;;;;;;15.97;6.80;;;9.10;99.90;;;;;;4977482;28;20968;-62
2024/02/05 08:11:54;;;;;;;24.57;8.43;;;9.00;99.90;;;;;;4977385;28;20733;-63
2024/02/05 08:14:22;;;;;;;22.30;6.97;;;9.00;99.90;;;;;;4976666;28;20468;-64
2024/02/05 08:16:50;;;;;;;18.90;7.10;;;9.00;99.90;;;;;;4976762;28;20494;-61
2024/02/05 08:19:17;;;;;;;19.33;7.47;;;9.00;99.90;;;;;;4976613;28;20440;-62
2024/02/05 08:21:45;;;;;;;19.37;7.30;;;9.10;99.90;;;;;;4976940;28;20465;-62
2024/02/05 08:24:14;;;;;;;21.03;7.83;;;9.10;99.90;;;;;;4976810;28;20477;-65
2024/02/05 08:26:41;;;;;;;18.60;7.63;;;9.10;99.90;;;;;;4976946;28;20462;-63
2024/02/05 08:29:08;;;;;;;21.63;6.73;;;9.10;99.90;;;;;;4976840;28;20992;-63
2024/02/05 08:31:36;;;;;;;20.57;8.17;;;9.10;99.90;;;;;;4976382;28;20462;-62
2024/02/05 08:34:03;;;;;;;25.80;8.30;;;9.10;99.90;;;;;;4976126;28;20454;-61
2024/02/05 08:36:32;;;;;;;17.53;7.40;;;9.10;99.90;;;;;;4995648;28;20540;-62
2024/02/05 08:38:59;;;;;;;18.00;6.90;;;9.10;99.90;;;;;;5041750;28;20473;-61
2024/02/05 08:41:28;;;;;;;21.63;7.80;;;9.10;99.90;;;;;;4974729;28;20466;-62
2024/02/05 08:43:56;;;;;;;22.77;7.43;;;9.10;99.90;;;;;;4976567;28;20516;-64
2024/02/05 08:46:23;;;;;;;16.60;8.13;;;9.20;99.90;;;;;;4975690;28;20474;-61
2024/02/05 08:48:51;;;;;;;19.03;7.60;;;9.20;99.90;;;;;;4974524;28;20521;-64
2024/02/05 08:51:18;;;;;;;26.90;7.87;;;9.20;99.90;;;;;;4975766;28;20490;-62
2024/02/05 08:53:46;;;;;;;20.63;7.63;;;9.10;99.90;;;;;;4976471;28;20508;-64
2024/02/05 08:56:14;;;;;;;18.50;8.33;;;9.10;99.90;;;;;;4972679;28;20470;-66
2024/02/05 08:58:43;;;;;;;23.53;7.67;;;9.10;99.90;;;;;;4975264;28;20457;-68
2024/02/05 09:01:10;;;;;;;20.13;9.00;;;9.10;99.90;;;;;;4975603;28;20993;-61
2024/02/05 09:03:37;;;;;;;35.73;9.07;;;9.10;99.90;;;;;;4975882;28;20465;-63
2024/02/05 09:06:05;;;;;;;15.00;6.57;;;9.10;99.90;;;;;;4975658;28;20509;-62
2024/02/05 09:08:36;;;;;;;25.17;7.83;;;9.10;99.90;;;;;;4974341;28;20521;-62
2024/02/05 09:11:03;;;;;;;22.83;7.73;;;9.10;99.90;;;;;;4974415;28;20527;-63
2024/02/05 09:13:31;;;;;;;27.50;8.00;;;9.20;99.90;;;;;;4975015;28;20887;-61
2024/02/05 09:16:00;;;;;;;15.47;6.87;;;9.20;1.00;;;;;;4974771;28;20469;-63
2024/02/05 09:18:27;;;;;;;14.37;7.67;;;9.20;99.90;;;;;;4973294;28;20758;-62
2024/02/05 09:20:54;;;;;;;18.17;6.63;;;9.20;99.90;;;;;;4975118;28;20469;-62
2024/02/05 09:23:22;;;;;;;12.90;6.83;;;9.20;99.90;;;;;;4974842;28;20465;-62
2024/02/05 09:25:49;;;;;;;23.97;7.90;;;9.30;5.80;;;;;;4975831;28;20875;-62
2024/02/05 09:28:16;;;;;;;16.00;6.50;;;9.30;1.00;;;;;;4975041;28;20934;-62
2024/02/05 09:30:44;;;;;;;20.30;6.77;;;9.40;1.00;;;;;;4974270;28;20468;-68
2024/02/05 09:33:13;;;;;;;20.70;7.60;;;9.40;1.00;;;;;;4972980;28;20537;-62
2024/02/05 09:35:40;;;;;;;15.70;7.10;;;9.30;1.00;;;;;;4974412;28;20883;-62
2024/02/05 09:38:09;;;;;;;21.80;8.00;;;9.40;1.00;;;;;;4973632;28;20462;-62
2024/02/05 09:40:36;;;;;;;18.83;8.10;;;9.40;1.00;;;;;;4973590;28;20454;-62
2024/02/05 09:43:04;;;;;;;18.00;7.40;;;9.50;1.00;;;;;;4973066;28;20772;-65
2024/02/05 09:45:36;;;;;;;13.33;6.90;;;9.40;99.90;;;;;;4975627;28;20469;-62
2024/02/05 09:48:05;;;;;;;16.80;6.90;;;9.50;1.00;;;;;;4973129;28;20494;-62
2024/02/05 09:50:36;;;;;;;18.97;6.63;;;9.40;1.00;;;;;;4973888;28;20461;-67
2024/02/05 09:53:04;;;;;;;20.13;6.53;;;9.40;99.90;;;;;;4974026;28;20757;-63
2024/02/05 09:55:32;;;;;;;25.50;7.90;;;9.50;1.00;;;;;;4973988;28;20462;-69
2024/02/05 09:58:00;;;;;;;20.57;6.70;;;9.50;99.90;;;;;;4972942;28;20516;-61
2024/02/05 10:00:27;;;;;;;13.70;7.40;;;9.50;99.90;;;;;;4973323;28;20476;-65
2024/02/05 10:02:55;;;;;;;17.23;7.00;;;9.60;1.00;;;;;;4974759;28;20829;-67
2024/02/05 10:05:26;;;;;;;20.87;7.90;;;9.50;1.00;;;;;;4975619;28;20748;-62
2024/02/05 10:07:56;;;;;;;24.00;7.90;;;9.40;1.00;;;;;;4977299;28;20482;-60
2024/02/05 10:10:24;;;;;;;20.70;6.90;;;9.50;1.00;;;;;;4978379;28;20467;-63
2024/02/05 10:12:54;;;;;;;31.67;8.30;;;9.50;1.00;;;;;;4978368;28;20461;-61
2024/02/05 10:15:24;;;;;;;18.20;7.10;;;9.60;1.00;;;;;;4977987;28;20527;-64
2024/02/05 10:17:54;;;;;;;23.13;6.80;;;9.60;99.90;;;;;;4979200;28;20548;-63
2024/02/05 10:20:32;;;;;;;18.67;6.83;;;9.70;1.00;;;;;;4978951;28;20469;-61
2024/02/05 10:23:01;;;;;;;15.17;6.90;;;9.70;99.90;;;;;;4978812;28;20944;-65
2024/02/05 10:25:29;;;;;;;26.53;7.50;;;9.70;1.00;;;;;;4978949;28;20909;-62
2024/02/05 10:28:04;;;;;;;23.13;7.50;;;9.70;99.90;;;;;;4979070;28;20515;-61
2024/02/05 10:30:32;;;;;;;23.20;8.57;;;9.70;99.90;;;;;;4978437;28;20566;-63
2024/02/05 10:33:01;;;;;;;22.33;7.90;;;9.70;1.00;;;;;;4978618;28;20474;-63
2024/02/05 10:35:29;;;;;;;17.00;7.57;;;9.60;1.00;;;;;;4978654;28;20466;-64
2024/02/05 10:38:09;;;;;;;19.67;7.13;;;9.70;1.00;;;;;;4978996;28;20504;-64
2024/02/05 10:40:36;;;;;;;16.20;7.30;;;9.70;1.00;;;;;;4978451;28;20469;-65
2024/02/05 10:43:04;;;;;;;23.50;8.00;;;9.70;99.90;;;;;;4977969;28;20477;-63
2024/02/05 10:45:34;;;;;;;18.50;8.30;;;9.70;1.00;;;;;;4976392;28;20480;-68
2024/02/05 10:48:01;;;;;;;13.97;5.73;;;9.70;99.90;;;;;;4975374;28;20909;-64
2024/02/05 10:50:29;;;;;;;16.33;7.50;;;9.70;99.90;;;;;;4976411;28;20459;-60
2024/02/05 10:52:57;;;;;;;21.83;7.70;;;9.70;99.90;;;;;;4976711;28;20472;-65
2024/02/05 10:55:28;;;;;;;19.83;7.40;;;9.70;99.90;;;;;;4977037;28;20594;-62
2024/02/05 10:57:57;;;;;;;17.47;6.90;;;9.60;99.90;;;;;;4975741;28;20535;-62
2024/02/05 11:00:25;;;;;;;16.33;7.00;;;9.60;1.00;;;;;;4977007;28;20893;-66
2024/02/05 11:02:57;;;;;;;24.20;7.13;;;9.70;99.90;;;;;;4977113;28;20466;-63
2024/02/05 11:05:26;;;;;;;16.03;7.20;;;9.70;1.00;;;;;;4977689;28;20462;-60
2024/02/05 11:07:59;;;;;;;19.00;7.43;;;9.70;99.90;;;;;;4977004;28;20497;-62
2024/02/05 11:10:31;;;;;;;20.30;7.70;;;9.80;1.00;;;;;;4977033;28;20519;-61
2024/02/05 11:13:00;;;;;;;17.63;6.77;;;9.70;99.90;;;;;;4977204;28;20789;-62
2024/02/05 11:15:31;;;;;;;14.63;6.50;;;9.70;99.90;;;;;;4977228;28;20462;-61
2024/02/05 11:18:01;;;;;;;23.13;7.47;;;9.80;99.90;;;;;;4977564;28;20757;-62
2024/02/05 11:20:31;;;;;;;17.10;7.03;;;9.80;99.90;;;;;;4976023;28;20728;-62
2024/02/05 11:23:00;;;;;;;15.70;7.13;;;9.80;99.90;;;;;;4976951;28;20466;-62
2024/02/05 11:25:31;;;;;;;20.17;7.00;;;9.80;99.90;;;;;;4977167;28;20901;-61
2024/02/05 11:27:59;;;;;;;23.50;7.50;;;9.80;99.90;;;;;;4975807;28;20478;-61
2024/02/05 11:30:30;;;;;;;17.10;7.27;;;9.90;99.90;;;;;;4967591;28;20498;-61
2024/02/05 11:32:58;;;;;;;21.60;6.97;;;10.00;99.90;;;;;;4975950;28;20444;-61
2024/02/05 11:35:32;;;;;;;16.47;6.77;;;10.10;99.90;;;;;;4976577;28;20466;-62
2024/02/05 11:38:07;;;;;;;16.00;6.37;;;10.20;99.90;;;;;;4976437;28;20764;-60
2024/02/05 11:40:38;;;;;;;21.03;6.33;;;10.10;99.90;;;;;;4976060;28;20901;-62
2024/02/05 11:43:07;;;;;;;18.00;6.90;;;10.20;99.90;;;;;;4975115;28;20568;-62
2024/02/05 11:45:35;;;;;;;20.33;6.90;;;10.30;99.90;;;;;;4975829;28;20940;-62
2024/02/05 11:48:03;;;;;;;24.57;6.73;;;10.30;99.90;;;;;;4974212;28;20458;-66
2024/02/05 11:50:32;;;;;;;23.40;7.00;;;10.30;99.90;;;;;;4974362;28;20498;-60
2024/02/05 11:53:00;;;;;;;17.33;6.57;;;10.40;99.90;;;;;;4974032;28;20519;-60
2024/02/05 11:55:28;;;;;;;17.47;7.10;;;10.50;99.90;;;;;;4973326;28;20926;-61
2024/02/05 11:57:57;;;;;;;17.93;6.63;;;10.50;99.90;;;;;;4974671;28;20474;-61
2024/02/05 12:00:25;;;;;;;17.07;6.03;;;10.70;99.90;;;;;;4975116;28;20462;-66
2024/02/05 12:02:53;;;;;;;21.47;7.70;;;10.60;99.90;;;;;;4975629;28;20561;-60
2024/02/05 12:05:23;;;;;;;15.60;7.40;;;10.70;99.90;;;;;;4975743;28;20511;-59
2024/02/05 12:07:51;;;;;;;16.07;6.50;;;10.70;99.90;;;;;;4974472;28;20804;-61
2024/02/05 12:10:19;;;;;;;18.53;7.20;;;10.70;99.90;;;;;;4975033;28;20544;-61
2024/02/05 12:12:47;;;;;;;15.27;5.63;;;10.60;99.90;;;;;;4974273;28;20600;-62
2024/02/05 12:15:22;;;;;;;17.73;6.90;;;10.60;99.90;;;;;;4975338;28;20466;-61
2024/02/05 12:17:50;;;;;;;16.97;6.93;;;10.60;99.90;;;;;;4974383;28;20751;-60
2024/02/05 12:20:21;;;;;;;16.70;6.00;;;10.60;99.90;;;;;;4974827;28;20994;-61
2024/02/05 12:22:50;;;;;;;20.00;6.03;;;10.60;99.90;;;;;;4974936;28;20979;-61
2024/02/05 12:25:18;;;;;;;14.43;6.80;;;10.70;99.90;;;;;;4975186;28;20761;-59
2024/02/05 12:27:47;;;;;;;13.90;6.23;;;10.70;99.90;;;;;;4975238;28;20462;-66
2024/02/05 12:30:15;;;;;;;17.70;7.10;;;10.60;99.90;;;;;;4975937;28;20581;-61
2024/02/05 12:32:45;;;;;;;14.03;6.20;;;10.60;99.90;;;;;;4975961;28;20462;-61
2024/02/05 12:35:14;;;;;;;17.43;7.57;;;10.70;99.90;;;;;;4976179;28;20867;-63
2024/02/05 12:37:44;;;;;;;23.80;6.97;;;10.80;52.10;;;;;;4975653;28;20513;-62
2024/02/05 12:40:12;;;;;;;15.60;6.60;;;10.60;62.60;;;;;;4974981;28;20488;-61
2024/02/05 12:42:40;;;;;;;20.20;7.93;;;10.60;99.90;;;;;;4975090;28;20470;-70
2024/02/05 12:45:10;;;;;;;15.60;8.73;;;10.80;97.60;;;;;;4975692;28;20520;-63
2024/02/05 12:47:38;;;;;;;23.30;6.93;;;11.00;85.20;;;;;;4976105;28;20487;-62